Latest Coastal Weather Observations for Charles Point

IDD60701

Issued at 10:31 pm CST Saturday 19 August 2017 (issued every 10 minutes, with the page automatically refreshed every 10 minutes)

About coastal observations | Map of coastal stations | Coastal observations for NT | Marine services | Other Formats
Station Details ID: 014031 Name: CHARLES POINT Lat: -12.39 Lon: 130.63 Height: 14.0 m
Data from the previous 72 hours. | See also: Recent months for locations in Northern Territory
Date/Time
CST
Temp
°C
Wind Pressure Rain since
9am
mm
Weather Cloud Vis
km
Sea
Height
m
Swell
Dir  Spd
kts
Gust
kts
hPa Trend Height
m
Period
s
Dir
19/10:30pm 24.2 NW 1 2 1013.6 - 0.0 - - - - - - -
19/10:00pm 24.8 NW 1 3 1013.5 - 0.0 - - - - - - -
19/09:30pm 24.8 NW 3 5 1013.1 - 0.0 - - - - - - -
19/09:00pm 24.8 NNW 3 4 1012.8 - 0.0 - - - - - - -
19/08:30pm 24.8 NNW 3 5 1012.5 - 0.0 - - - - - - -
19/08:00pm 25.1 NNW 3 4 1012.1 - 0.0 - - - - - - -
19/07:30pm 25.7 N 3 5 1011.7 - 0.0 - - - - - - -
19/07:00pm 26.1 N 1 4 1011.5 - 0.0 - - - - - - -
19/06:30pm 27.7 CALM 0 0 1011.1 - 0.0 - - - - - - -
19/06:00pm 29.1 N 2 3 1011.0 - 0.0 - - - - - - -
19/05:30pm 29.2 N 3 5 1010.8 - 0.0 - - - - - - -
19/05:00pm 28.9 N 6 8 1010.7 - 0.0 - - - - - - -
19/04:30pm 28.8 N 9 11 1010.7 - 0.0 - - - - - - -
19/04:00pm 29.2 N 9 11 1010.7 - 0.0 - - - - - - -
19/03:30pm 29.5 NNW 6 9 1011.0 - 0.0 - - - - - - -
19/03:00pm 29.2 NNW 7 10 1011.3 - 0.0 - - - - - - -
19/02:30pm 28.9 N 8 10 1011.7 - 0.0 - - - - - - -
19/02:00pm 29.1 N 9 10 1012.2 - 0.0 - - - - - - -
19/01:30pm 28.9 N 7 9 1012.7 - 0.0 - - - - - - -
19/01:00pm 29.0 N 7 9 1013.3 - 0.0 - - - - - - -
19/12:30pm 29.3 N 6 7 1014.0 - 0.0 - - - - - - -
19/12:00pm 29.6 NNE 5 7 1014.6 - 0.0 - - - - - - -
19/11:30am 29.7 ENE 5 8 1015.0 - 0.0 - - - - - - -
19/11:00am 28.0 SE 4 5 1015.3 - 0.0 - - - - - - -
19/10:30am 28.6 SSE 3 5 1015.5 - 0.0 - - - - - - -
19/10:00am 26.9 SSE 3 4 1015.6 - 0.0 - - - - - - -
19/09:30am 26.8 S 2 3 1015.2 - 0.0 - - - - - - -
19/09:00am 27.0 CALM 0 2 1014.9 - 0.0 - - - - - - -
19/08:30am 25.9 CALM 0 0 1014.6 - 0.0 - - - - - - -
19/08:00am 23.1 S 2 3 1014.4 - 0.0 - - - - - - -
19/07:30am 21.9 S 3 4 1014.3 - 0.0 - - - - - - -
19/07:00am 21.6 S 3 4 1014.0 - 0.0 - - - - - - -
19/06:30am 21.6 S 3 4 1013.6 - 0.0 - - - - - - -
19/06:00am 21.8 SSW 3 4 1013.4 - 0.0 - - - - - - -
19/05:30am 22.0 SW 3 4 1013.1 - 0.0 - - - - - - -
19/05:00am 22.1 WSW 3 3 1013.0 - 0.0 - - - - - - -
19/04:30am 22.5 W 2 3 1013.0 - 0.0 - - - - - - -
19/04:00am 23.0 CALM 0 2 1012.9 - 0.0 - - - - - - -
19/03:30am 23.8 W 1 3 1013.1 - 0.0 - - - - - - -
19/03:00am 24.4 WNW 1 4 1013.2 - 0.0 - - - - - - -
19/02:30am 26.1 WNW 5 7 1013.3 - 0.0 - - - - - - -
19/02:00am 26.3 WNW 7 9 1013.5 - 0.0 - - - - - - -
19/01:30am 26.5 WNW 9 11 1013.6 - 0.0 - - - - - - -
19/01:00am 25.8 WNW 4 8 1013.7 - 0.0 - - - - - - -
19/12:30am 24.4 WNW 1 3 1014.0 - 0.0 - - - - - - -
19/12:00am 24.8 NW 3 9 1014.0 - 0.0 - - - - - - -
 
Date/Time
CST
Temp
°C
Wind Pressure Rain since
9am
mm
Weather Cloud Vis
km
Sea
Height
m
Swell
Dir  Spd
kts
Gust
kts
hPa Trend Height
m
Period
s
Dir
18/11:30pm 26.0 ENE 2 4 1013.8 - 0.0 - - - - - - -
18/11:00pm 26.6 ENE 4 7 1013.7 - 0.0 - - - - - - -
18/10:30pm 26.5 ENE 3 6 1013.7 - 0.0 - - - - - - -
18/10:00pm 26.6 ENE 3 6 1013.5 - 0.0 - - - - - - -
18/09:30pm 26.8 ENE 3 6 1013.4 - 0.0 - - - - - - -
18/09:00pm 26.9 ENE 4 6 1013.0 - 0.0 - - - - - - -
18/08:30pm 27.2 NE 6 9 1012.6 - 0.0 - - - - - - -
18/08:00pm 27.3 NE 5 8 1012.0 - 0.0 - - - - - - -
18/07:30pm 27.3 NE 6 10 1011.7 - 0.0 - - - - - - -
18/07:00pm 27.6 NE 6 10 1011.4 - 0.0 - - - - - - -
18/06:30pm 27.8 NE 10 13 1010.8 - 0.0 - - - - - - -
18/06:00pm 28.0 NE 10 14 1010.5 - 0.0 - - - - - - -
18/05:30pm 28.4 NE 10 14 1010.2 - 0.0 - - - - - - -
18/05:00pm 28.4 NE 11 16 1010.0 - 0.0 - - - - - - -
18/04:30pm 28.3 NE 12 18 1010.0 - 0.0 - - - - - - -
18/04:00pm 28.5 NNE 13 17 1010.0 - 0.0 - - - - - - -
18/03:30pm 29.0 NNE 10 13 1010.1 - 0.0 - - - - - - -
18/03:00pm 28.4 NNE 8 12 1010.5 - 0.0 - - - - - - -
18/02:30pm 28.8 NNE 7 12 1010.8 - 0.0 - - - - - - -
18/02:00pm 29.4 NNE 7 10 1011.2 - 0.0 - - - - - - -
18/01:30pm 29.1 NNE 6 12 1011.7 - 0.0 - - - - - - -
18/01:00pm 29.4 NNE 6 9 1012.2 - 0.0 - - - - - - -
18/12:30pm 29.2 NE 6 9 1012.5 - 0.0 - - - - - - -
18/12:00pm 29.1 NE 6 9 1013.0 - 0.0 - - - - - - -
18/11:30am 29.3 NE 5 9 1013.6 - 0.0 - - - - - - -
18/11:00am 29.5 ENE 6 9 1014.0 - 0.0 - - - - - - -
18/10:30am 28.8 ENE 6 10 1014.3 - 0.0 - - - - - - -
18/10:00am 27.5 ENE 5 9 1014.3 - 0.0 - - - - - - -
18/09:30am 27.8 ENE 6 10 1014.1 - 0.0 - - - - - - -
18/09:00am 28.1 ENE 5 8 1014.1 - 0.0 - - - - - - -
18/08:30am 27.9 E 4 7 1013.8 - 0.0 - - - - - - -
18/08:00am 26.7 ESE 2 5 1013.5 - 0.0 - - - - - - -
18/07:30am 24.8 SE 3 4 1013.2 - 0.0 - - - - - - -
18/07:00am 24.6 SE 2 4 1012.9 - 0.0 - - - - - - -
18/06:30am 25.3 ESE 3 6 1012.5 - 0.0 - - - - - - -
18/06:00am 25.4 SE 3 5 1012.0 - 0.0 - - - - - - -
18/05:30am 26.2 ESE 4 8 1011.8 - 0.0 - - - - - - -
18/05:00am 26.3 ENE 2 3 1011.2 - 0.0 - - - - - - -
18/04:30am 26.4 NE 3 5 1011.0 - 0.0 - - - - - - -
18/04:00am 26.3 NE 4 5 1011.0 - 0.0 - - - - - - -
18/03:30am 26.4 NNE 3 5 1011.0 - 0.0 - - - - - - -
18/03:00am 26.4 N 5 6 1011.0 - 0.0 - - - - - - -
18/02:30am 26.5 N 6 8 1011.1 - 0.0 - - - - - - -
18/02:00am 26.6 N 5 7 1011.3 - 0.0 - - - - - - -
18/01:30am 26.7 NNW 6 8 1011.5 - 0.0 - - - - - - -
18/01:00am 27.1 NW 6 8 1011.7 - 0.0 - - - - - - -
18/12:30am 27.2 WNW 7 9 1011.8 - 0.0 - - - - - - -
18/12:00am 27.1 WNW 7 8 1011.7 - 0.0 - - - - - - -
 
Date/Time
CST
Temp
°C
Wind Pressure Rain since
9am
mm
Weather Cloud Vis
km
Sea
Height
m
Swell
Dir  Spd
kts
Gust
kts
hPa Trend Height
m
Period
s
Dir
17/11:30pm 27.2 WNW 7 9 1011.8 - 0.0 - - - - - - -
17/11:00pm 25.7 W 1 4 1011.8 - 0.0 - - - - - - -
17/10:30pm 25.2 CALM 0 2 1011.9 - 0.0 - - - - - - -
17/10:00pm 25.1 CALM 0 0 1011.8 - 0.0 - - - - - - -
17/09:30pm 25.4 W 2 3 1011.5 - 0.0 - - - - - - -
17/09:00pm 25.4 W 2 3 1011.1 - 0.0 - - - - - - -
17/08:30pm 25.2 NNW 1 3 1010.6 - 0.0 - - - - - - -
17/08:00pm 25.6 CALM 0 0 1010.2 - 0.0 - - - - - - -
17/07:30pm 26.3 CALM 0 0 1009.8 - 0.0 - - - - - - -
17/07:00pm 27.6 NNW 2 3 1009.7 - 0.0 - - - - - - -
17/06:30pm 28.0 NNW 2 3 1009.4 - 0.0 - - - - - - -
17/06:00pm 28.8 NNW 3 4 1009.4 - 0.0 - - - - - - -
17/05:30pm 29.0 NNW 3 5 1009.2 - 0.0 - - - - - - -
17/05:00pm 29.4 NNW 5 7 1009.0 - 0.0 - - - - - - -
17/04:30pm 29.4 NW 5 7 1009.0 - 0.0 - - - - - - -
17/04:00pm 29.6 NW 5 8 1009.1 - 0.0 - - - - - - -
17/03:30pm 29.9 NNW 6 9 1009.3 - 0.0 - - - - - - -
17/03:00pm 30.2 NW 5 8 1009.5 - 0.0 - - - - - - -
17/02:30pm 29.9 NW 5 7 1009.9 - 0.0 - - - - - - -
17/02:00pm 30.2 NE 5 8 1010.3 - 0.0 - - - - - - -
17/01:30pm 29.6 NE 4 6 1010.7 - 0.0 - - - - - - -
17/01:00pm 30.3 NE 3 4 1011.2 - 0.0 - - - - - - -
17/12:30pm 29.6 ENE 3 5 1011.7 - 0.0 - - - - - - -
17/12:00pm 29.4 ENE 4 5 1012.3 - 0.0 - - - - - - -
17/11:30am 28.7 ENE 3 4 1012.8 - 0.0 - - - - - - -
17/11:00am 29.7 ENE 5 8 1013.2 - 0.0 - - - - - - -
17/10:30am 29.1 SE 4 7 1013.3 - 0.0 - - - - - - -
17/10:00am 28.9 SSE 2 4 1013.2 - 0.0 - - - - - - -
17/09:30am 28.5 S 1 3 1012.9 - 0.0 - - - - - - -
17/09:00am 27.7 SSW 2 4 1012.7 - 0.0 - - - - - - -
17/08:30am 26.0 S 3 5 1012.4 - 0.0 - - - - - - -
17/08:00am 24.4 S 3 5 1012.2 - 0.0 - - - - - - -
17/07:30am 23.4 S 4 5 1011.8 - 0.0 - - - - - - -
17/07:00am 23.1 S 3 5 1011.5 - 0.0 - - - - - - -
17/06:30am 23.1 S 3 4 1011.2 - 0.0 - - - - - - -
17/06:00am 23.3 SSE 3 5 1010.8 - 0.0 - - - - - - -
17/05:30am 23.1 SSE 3 5 1010.5 - 0.0 - - - - - - -
17/05:00am 23.0 SSE 4 5 1010.2 - 0.0 - - - - - - -
17/04:30am 23.2 S 3 4 1010.0 - 0.0 - - - - - - -
17/04:00am 23.2 S 3 4 1009.9 - 0.0 - - - - - - -
17/03:30am 23.3 SSW 3 4 1010.0 - 0.0 - - - - - - -
17/03:00am 23.2 SW 2 3 1010.1 - 0.0 - - - - - - -
17/02:30am 23.2 CALM 0 1 1010.2 - 0.0 - - - - - - -
17/02:00am 23.5 SW 1 1 1010.4 - 0.0 - - - - - - -
17/01:30am 23.7 SW 1 2 1010.6 - 0.0 - - - - - - -
17/01:00am 23.9 CALM 0 2 1010.9 - 0.0 - - - - - - -
17/12:30am 24.0 SW 1 3 1011.0 - 0.0 - - - - - - -
17/12:00am 24.1 SW 1 2 1011.3 - 0.0 - - - - - - -
 
Date/Time
CST
Temp
°C
Wind Pressure Rain since
9am
mm
Weather Cloud Vis
km
Sea
Height
m
Swell
Dir  Spd
kts
Gust
kts
hPa Trend Height
m
Period
s
Dir
16/11:30pm 24.5 SW 1 3 1011.4 - 0.0 - - - - - - -
16/11:00pm 24.9 SW 1 3 1011.6 - 0.0 - - - - - - -

Other Formats:

Comma delimited format used in spreadsheet applications
http://www.bom.gov.au/fwo/IDD60701/IDD60701.99510.axf

JavaScript Object Notation format (JSON) in row-major order
http://www.bom.gov.au/fwo/IDD60701/IDD60701.99510.json